Time;durP1;ratioP1;P1;durP2;ratioP2;P2;SDS_P1;SDS_P2;PMS_P1;PMS_P2;Temp;Humidity;BMP_temperature;BMP_pressure;BME280_temperature;BME280_humidity;BME280_pressure;Samples;Min_cycle;Max_cycle;Signal;HPM_P1;HPM_P2
2021/10/28 00:15:26;;;;;;;20.23;14.50;;;13.20;86.80;;;;;;5076634;28;20719;-90
2021/10/28 00:20:28;;;;;;;16.07;13.33;;;13.00;87.30;;;;;;5076548;28;20618;-90
2021/10/28 00:22:55;;;;;;;15.93;14.10;;;12.90;87.40;;;;;;5076153;28;20170;-90
2021/10/28 00:25:21;;;;;;;17.40;14.70;;;12.90;87.30;;;;;;5058282;28;20547;-90
2021/10/28 00:27:49;;;;;;;23.83;16.67;;;12.90;87.60;;;;;;5075948;28;20202;-90
2021/10/28 00:30:17;;;;;;;23.50;17.20;;;12.90;87.50;;;;;;5075966;28;20640;-91
2021/10/28 00:32:43;;;;;;;23.80;17.27;;;12.90;87.50;;;;;;5058375;28;20190;-91
2021/10/28 00:35:09;;;;;;;22.47;16.50;;;12.90;87.50;;;;;;5057562;28;20546;-91
2021/10/28 00:37:36;;;;;;;18.57;14.43;;;12.80;87.40;;;;;;5057552;28;20207;-90
2021/10/28 00:40:04;;;;;;;27.60;17.10;;;12.80;87.60;;;;;;5058180;28;20180;-90
2021/10/28 00:42:30;;;;;;;24.87;16.00;;;12.80;87.80;;;;;;5057854;28;20176;-91
2021/10/28 00:44:55;;;;;;;20.53;15.63;;;12.80;87.70;;;;;;5075772;28;20183;-91
2021/10/28 00:47:21;;;;;;;23.00;17.13;;;12.70;87.90;;;;;;5075820;28;20179;-91
2021/10/28 00:49:47;;;;;;;22.07;16.87;;;12.60;88.00;;;;;;5075737;28;20201;-91
2021/10/28 00:52:12;;;;;;;22.43;17.23;;;12.50;88.20;;;;;;5075661;28;20178;-91
2021/10/28 00:54:39;;;;;;;24.77;17.40;;;12.50;88.40;;;;;;5075706;28;20245;-91
2021/10/28 00:57:06;;;;;;;24.63;17.97;;;12.50;88.40;;;;;;5058384;28;20217;-91
2021/10/28 00:59:32;;;;;;;26.70;16.63;;;12.50;88.60;;;;;;5057579;28;20228;-91
2021/10/28 01:01:58;;;;;;;23.40;18.07;;;12.50;88.50;;;;;;5075521;28;20251;-91
2021/10/28 01:04:24;;;;;;;28.87;19.30;;;12.50;88.50;;;;;;5057469;28;20175;-91
2021/10/28 01:06:50;;;;;;;22.77;18.60;;;12.50;88.60;;;;;;5057480;28;20183;-91
2021/10/28 01:09:16;;;;;;;28.63;20.03;;;12.50;88.40;;;;;;5057745;28;20203;-91
2021/10/28 01:11:43;;;;;;;24.57;18.83;;;12.50;88.50;;;;;;5057455;28;20282;-91
2021/10/28 01:14:08;;;;;;;26.83;18.33;;;12.50;88.70;;;;;;5057308;28;20182;-90
2021/10/28 01:16:34;;;;;;;31.40;22.93;;;12.30;89.30;;;;;;5057289;28;20203;-90
2021/10/28 01:19:00;;;;;;;30.80;22.10;;;12.20;89.50;;;;;;5057149;28;20199;-90
2021/10/28 01:21:26;;;;;;;35.50;24.80;;;12.10;89.70;;;;;;5075119;28;20167;-91
2021/10/28 01:23:51;;;;;;;36.83;26.13;;;12.10;89.90;;;;;;5057202;28;20174;-90
2021/10/28 01:26:18;;;;;;;35.83;25.30;;;12.00;90.00;;;;;;5075295;28;20176;-90
2021/10/28 01:28:55;;;;;;;40.57;27.77;;;11.90;90.20;;;;;;5056948;28;20654;-90
2021/10/28 01:31:22;;;;;;;37.20;25.67;;;11.90;90.20;;;;;;5057104;28;20581;-91
2021/10/28 01:33:49;;;;;;;37.90;25.93;;;11.90;90.30;;;;;;5056961;28;20297;-91
2021/10/28 01:36:17;;;;;;;33.57;23.07;;;11.80;90.40;;;;;;5074734;28;20606;-91
2021/10/28 01:38:43;;;;;;;40.23;27.93;;;11.80;90.30;;;;;;5056786;28;20305;-91
2021/10/28 01:41:10;;;;;;;40.53;27.83;;;11.80;90.30;;;;;;5074730;28;20673;-91
2021/10/28 01:43:36;;;;;;;38.30;26.80;;;11.70;90.30;;;;;;5056792;28;20520;-91
2021/10/28 01:46:03;;;;;;;34.37;27.90;;;11.70;90.20;;;;;;5074957;28;20187;-92
2021/10/28 01:48:31;;;;;;;40.03;29.10;;;11.70;90.30;;;;;;5056659;28;20195;-91
2021/10/28 01:50:57;;;;;;;34.70;26.77;;;11.70;90.20;;;;;;5074604;28;20167;-92
2021/10/28 01:53:22;;;;;;;38.63;29.23;;;11.70;90.40;;;;;;5074746;28;20178;-90
2021/10/28 01:55:49;;;;;;;36.07;28.27;;;11.70;90.30;;;;;;5056403;28;20209;-90
2021/10/28 01:58:17;;;;;;;35.23;26.83;;;11.70;90.20;;;;;;5056832;28;20245;-91
2021/10/28 02:00:45;;;;;;;36.97;27.80;;;11.70;90.20;;;;;;5056398;28;20574;-91
2021/10/28 02:03:10;;;;;;;47.33;29.97;;;11.60;90.30;;;;;;5056298;28;20210;-91
2021/10/28 02:05:36;;;;;;;32.57;26.77;;;11.60;90.20;;;;;;5056584;28;20203;-91
2021/10/28 02:08:03;;;;;;;39.13;27.63;;;11.70;90.30;;;;;;5074268;28;20191;-90
2021/10/28 02:10:28;;;;;;;38.23;27.57;;;11.70;90.30;;;;;;5074273;28;20174;-91
2021/10/28 02:12:57;;;;;;;42.70;29.33;;;11.70;90.20;;;;;;5074104;28;20175;-91
2021/10/28 02:15:24;;;;;;;41.73;29.80;;;11.70;90.20;;;;;;5056154;28;20224;-91
2021/10/28 02:17:51;;;;;;;37.03;31.23;;;11.60;90.30;;;;;;5073866;28;20207;-90
2021/10/28 02:20:18;;;;;;;40.27;26.67;;;11.70;90.20;;;;;;5056086;28;20171;-90
2021/10/28 02:22:44;;;;;;;41.23;31.50;;;11.70;90.20;;;;;;5056861;28;20228;-91
2021/10/28 02:25:12;;;;;;;34.30;27.43;;;11.70;90.10;;;;;;5055958;28;20175;-91
2021/10/28 02:27:38;;;;;;;42.13;29.20;;;11.70;90.10;;;;;;5055752;28;20290;-91
2021/10/28 02:30:06;;;;;;;41.97;29.90;;;11.80;89.90;;;;;;5073859;28;20179;-90
2021/10/28 02:32:32;;;;;;;44.37;31.63;;;11.80;90.00;;;;;;5073934;28;20174;-91
2021/10/28 02:34:57;;;;;;;42.03;28.43;;;11.80;89.80;;;;;;5055827;28;20183;-91
2021/10/28 02:37:23;;;;;;;40.90;28.47;;;11.80;89.90;;;;;;5055508;28;20203;-91
2021/10/28 02:39:50;;;;;;;36.70;29.20;;;11.80;89.80;;;;;;5073554;28;20199;-90
2021/10/28 02:42:16;;;;;;;42.20;29.93;;;11.90;89.70;;;;;;5055687;28;20185;-91
2021/10/28 02:44:43;;;;;;;39.40;28.90;;;11.80;89.70;;;;;;5073604;28;20288;-91
2021/10/28 02:47:09;;;;;;;39.30;29.53;;;11.90;89.60;;;;;;5055466;28;20189;-91
2021/10/28 02:49:35;;;;;;;36.67;27.43;;;11.90;89.60;;;;;;5055481;28;20711;-91
2021/10/28 02:52:00;;;;;;;43.63;28.73;;;11.90;89.60;;;;;;5073543;28;20171;-91
2021/10/28 02:54:26;;;;;;;37.00;27.83;;;11.80;89.80;;;;;;5055690;28;20218;-91
2021/10/28 02:56:51;;;;;;;38.47;28.37;;;11.80;90.00;;;;;;5056316;28;20194;-91
2021/10/28 02:59:17;;;;;;;38.43;29.63;;;11.80;90.20;;;;;;5054935;28;20191;-92
2021/10/28 03:01:51;;;;;;;35.67;23.50;;;11.70;90.30;;;;;;5055526;28;20194;-91
2021/10/28 03:04:19;;;;;;;39.13;28.33;;;11.70;90.20;;;;;;5055479;28;20159;-90
2021/10/28 03:06:46;;;;;;;49.03;29.87;;;11.70;90.30;;;;;;5055457;28;20179;-91
2021/10/28 03:09:18;;;;;;;49.70;28.80;;;11.70;90.50;;;;;;5073162;28;20206;-90
2021/10/28 03:11:47;;;;;;;37.80;28.03;;;11.70;90.50;;;;;;5055381;28;20160;-91
2021/10/28 03:14:14;;;;;;;43.83;29.13;;;11.70;90.70;;;;;;5073305;28;20168;-91
2021/10/28 03:27:01;;;;;;;37.93;25.73;;;11.50;90.80;;;;;;5073568;28;20221;-91
2021/10/28 03:29:26;;;;;;;37.67;26.33;;;11.50;90.90;;;;;;5055119;28;20203;-91
2021/10/28 03:31:52;;;;;;;37.20;26.17;;;11.50;90.80;;;;;;5073012;28;20660;-91
2021/10/28 03:34:19;;;;;;;33.20;24.40;;;11.50;90.80;;;;;;5073048;28;20175;-91
2021/10/28 03:36:50;;;;;;;36.60;26.33;;;11.50;90.60;;;;;;5055005;28;20195;-90
2021/10/28 04:30:24;;;;;;;35.83;24.80;;;11.20;90.90;;;;;;5076374;28;20272;-91
2021/10/28 04:32:51;;;;;;;38.33;23.77;;;11.20;90.80;;;;;;5058149;28;20171;-90
2021/10/28 04:35:18;;;;;;;33.30;24.03;;;11.20;90.80;;;;;;5075983;28;20575;-91
2021/10/28 04:37:45;;;;;;;38.00;25.30;;;11.10;90.90;;;;;;5057942;28;20211;-91
2021/10/28 04:40:13;;;;;;;37.37;25.13;;;10.90;91.00;;;;;;5057921;28;20258;-91
2021/10/28 04:42:39;;;;;;;36.77;26.13;;;10.70;91.30;;;;;;5075865;28;20309;-90
2021/10/28 04:45:05;;;;;;;35.70;24.93;;;10.70;91.30;;;;;;5075823;28;20713;-90
2021/10/28 04:47:31;;;;;;;31.27;22.43;;;10.50;91.40;;;;;;5058025;28;20249;-91
2021/10/28 04:49:57;;;;;;;36.37;25.30;;;10.40;91.50;;;;;;5058114;28;20187;-90
2021/10/28 04:52:23;;;;;;;34.53;24.77;;;10.30;91.60;;;;;;5075824;28;20171;-91
2021/10/28 04:54:49;;;;;;;35.50;24.83;;;10.30;91.60;;;;;;5075663;28;20220;-91
2021/10/28 04:57:15;;;;;;;35.30;24.93;;;10.20;91.60;;;;;;5057419;28;20203;-90
2021/10/28 04:59:42;;;;;;;32.80;24.20;;;10.10;91.80;;;;;;5057759;28;20221;-91
2021/10/28 05:02:08;;;;;;;37.43;25.93;;;10.10;91.80;;;;;;5057488;28;20198;-90
2021/10/28 05:04:33;;;;;;;35.90;24.07;;;10.00;91.70;;;;;;5057438;28;20213;-91
2021/10/28 05:06:59;;;;;;;36.00;25.37;;;10.00;91.70;;;;;;5075354;28;20186;-90
2021/10/28 05:09:29;;;;;;;34.23;23.67;;;9.80;91.60;;;;;;5075244;28;20287;-91
2021/10/28 05:11:56;;;;;;;36.60;25.53;;;9.80;91.60;;;;;;5057378;28;20224;-91
2021/10/28 05:14:23;;;;;;;31.83;23.60;;;9.70;91.70;;;;;;5057369;28;20266;-91
2021/10/28 05:16:55;;;;;;;38.10;25.13;;;9.60;91.80;;;;;;5058068;28;20526;-91
2021/10/28 05:19:21;;;;;;;36.17;24.20;;;9.60;91.90;;;;;;5057505;28;20198;-91
2021/10/28 05:21:47;;;;;;;36.03;24.47;;;9.50;92.00;;;;;;5074540;28;20206;-91
2021/10/28 05:24:13;;;;;;;35.73;24.27;;;9.50;92.10;;;;;;5075322;28;20176;-91
2021/10/28 05:26:39;;;;;;;39.80;24.43;;;9.30;92.10;;;;;;5057147;28;20179;-91
2021/10/28 05:29:05;;;;;;;33.97;24.33;;;9.40;92.30;;;;;;5075128;28;20191;-91
2021/10/28 05:31:30;;;;;;;44.93;25.23;;;9.40;92.30;;;;;;5057972;28;20581;-90
2021/10/28 05:33:56;;;;;;;38.37;24.80;;;9.30;92.30;;;;;;5074865;28;20175;-91
2021/10/28 05:36:22;;;;;;;38.27;25.00;;;9.30;92.40;;;;;;5074822;28;20191;-91
2021/10/28 05:38:47;;;;;;;41.87;24.60;;;9.30;92.30;;;;;;5074743;28;20205;-91
2021/10/28 05:41:13;;;;;;;34.73;23.10;;;9.30;92.20;;;;;;5074747;28;20527;-91
2021/10/28 05:43:39;;;;;;;32.07;22.80;;;9.30;92.20;;;;;;5074670;28;20209;-91
2021/10/28 05:46:04;;;;;;;33.90;21.93;;;9.40;92.10;;;;;;5056801;28;20529;-92
2021/10/28 05:48:31;;;;;;;36.20;23.90;;;9.30;92.00;;;;;;5056715;28;20227;-92
2021/10/28 05:50:57;;;;;;;32.80;22.57;;;9.30;91.80;;;;;;5074655;28;20172;-92
2021/10/28 05:53:23;;;;;;;27.97;21.50;;;9.30;91.80;;;;;;5074616;28;20178;-92
2021/10/28 05:55:49;;;;;;;33.53;21.60;;;9.30;91.70;;;;;;5056828;28;20794;-91
2021/10/28 05:58:15;;;;;;;36.90;22.20;;;9.30;91.80;;;;;;5056442;28;20207;-92
2021/10/28 06:00:41;;;;;;;30.77;22.23;;;9.20;91.80;;;;;;5056611;28;20206;-92
2021/10/28 06:03:06;;;;;;;32.67;20.83;;;9.20;91.90;;;;;;5056565;28;20211;-92
2021/10/28 06:05:32;;;;;;;32.00;21.13;;;9.20;91.60;;;;;;5056465;28;20176;-92
2021/10/28 06:07:57;;;;;;;27.57;19.50;;;9.20;91.50;;;;;;5056366;28;20195;-91
2021/10/28 06:10:23;;;;;;;27.50;19.87;;;9.20;91.40;;;;;;5056283;28;20175;-91
2021/10/28 06:12:54;;;;;;;33.70;20.73;;;9.10;91.30;;;;;;5056224;28;20184;-91
2021/10/28 06:15:21;;;;;;;32.17;21.40;;;9.00;91.50;;;;;;5056178;28;20175;-91
2021/10/28 06:20:22;;;;;;;31.97;20.40;;;9.00;91.80;;;;;;5074006;28;20547;-92
2021/10/28 06:22:49;;;;;;;28.30;19.97;;;9.00;91.80;;;;;;5056332;28;20221;-90
2021/10/28 06:25:16;;;;;;;27.83;20.73;;;8.90;91.80;;;;;;5055919;28;20171;-91
2021/10/28 06:27:42;;;;;;;34.17;19.77;;;8.90;92.00;;;;;;5055906;28;20195;-90
2021/10/28 06:30:08;;;;;;;34.27;19.73;;;8.90;92.00;;;;;;5055942;28;20693;-90
2021/10/28 06:32:35;;;;;;;28.27;19.00;;;8.90;92.10;;;;;;5056303;28;20540;-91
2021/10/28 06:35:03;;;;;;;27.43;19.10;;;8.90;92.10;;;;;;5054980;28;20203;-90
2021/10/28 06:37:29;;;;;;;30.60;19.00;;;8.80;92.10;;;;;;5073845;28;20564;-90
2021/10/28 06:39:54;;;;;;;25.80;18.53;;;8.90;92.20;;;;;;5055745;28;20224;-90
2021/10/28 06:42:20;;;;;;;25.13;17.43;;;8.90;92.30;;;;;;5055795;28;20202;-90
2021/10/28 06:44:46;;;;;;;29.97;18.70;;;8.90;92.20;;;;;;5055696;28;20545;-90
2021/10/28 06:47:12;;;;;;;25.00;17.00;;;8.90;92.20;;;;;;5073466;28;20175;-90
2021/10/28 06:49:42;;;;;;;29.23;17.70;;;8.90;92.20;;;;;;5073523;28;20171;-90
2021/10/28 06:52:12;;;;;;;22.77;16.47;;;8.90;92.30;;;;;;5055683;28;20169;-90
2021/10/28 06:54:40;;;;;;;25.00;17.37;;;9.00;92.40;;;;;;5055437;28;20195;-90
2021/10/28 07:02:37;;;;;;;21.83;16.30;;;9.00;92.70;;;;;;5073887;28;20201;-91
2021/10/28 07:05:04;;;;;;;27.63;18.10;;;9.00;92.70;;;;;;5055476;28;20159;-90
2021/10/28 07:07:33;;;;;;;21.33;16.40;;;9.10;92.80;;;;;;5055776;28;20229;-90
2021/10/28 07:15:41;;;;;;;26.70;17.20;;;9.20;92.70;;;;;;5073500;28;20181;-91
2021/10/28 08:17:36;;;;;;;23.50;15.07;;;10.60;91.10;;;;;;5076597;28;20204;-90
2021/10/28 08:20:07;;;;;;;23.87;15.83;;;10.60;91.00;;;;;;5058433;28;20164;-91
2021/10/28 08:22:41;;;;;;;22.97;15.07;;;10.70;90.90;;;;;;5058494;28;20159;-91
2021/10/28 08:30:35;;;;;;;26.27;16.90;;;10.80;90.60;;;;;;5076887;28;20578;-90
2021/10/28 08:33:01;;;;;;;21.27;14.97;;;10.90;90.50;;;;;;5076191;28;20167;-91
2021/10/28 08:35:29;;;;;;;22.87;14.73;;;11.00;90.30;;;;;;5058294;28;20175;-90
2021/10/28 08:37:57;;;;;;;24.83;16.53;;;11.00;90.10;;;;;;5057980;28;20593;-89
2021/10/28 08:40:24;;;;;;;28.93;15.43;;;11.10;90.10;;;;;;5076075;28;20169;-88
2021/10/28 08:42:51;;;;;;;18.77;15.30;;;11.20;89.90;;;;;;5058066;28;20214;-91
2021/10/28 08:45:19;;;;;;;18.73;14.40;;;11.20;89.70;;;;;;5058404;28;20547;-91
2021/10/28 08:47:58;;;;;;;20.00;15.07;;;11.30;89.70;;;;;;5057967;28;20203;-90
2021/10/28 08:55:37;;;;;;;20.57;13.50;;;11.50;88.90;;;;;;5075876;28;20251;-91
2021/10/28 09:26:18;;;;;;;16.93;12.90;;;12.50;87.30;;;;;;5075360;28;20190;-91
2021/10/28 09:28:48;;;;;;;17.93;11.93;;;12.60;87.00;;;;;;5075153;28;20191;-91
2021/10/28 09:31:18;;;;;;;15.27;12.13;;;12.60;86.30;;;;;;5075335;28;20167;-91
2021/10/28 09:33:58;;;;;;;16.97;11.87;;;12.70;85.90;;;;;;5057365;28;20159;-91
2021/10/28 09:45:56;;;;;;;18.93;11.70;;;13.10;84.70;;;;;;5075714;28;20204;-91
2021/10/28 09:48:33;;;;;;;13.77;9.80;;;13.30;84.90;;;;;;5057295;28;20560;-90
2021/10/28 09:51:01;;;;;;;13.43;10.70;;;13.20;83.70;;;;;;5056764;28;20216;-91
2021/10/28 09:53:32;;;;;;;13.93;10.43;;;13.30;84.30;;;;;;5056785;28;20176;-91
2021/10/28 09:58:42;;;;;;;12.60;9.83;;;13.50;83.70;;;;;;5074852;28;20198;-90
2021/10/28 10:01:44;;;;;;;13.73;8.83;;;13.60;83.10;;;;;;5056787;28;20175;-91
2021/10/28 10:04:10;;;;;;;11.77;9.93;;;13.70;83.00;;;;;;5056580;28;20187;-91
2021/10/28 10:06:39;;;;;;;13.07;8.23;;;13.70;82.90;;;;;;5057754;28;20577;-90
2021/10/28 10:09:05;;;;;;;12.87;8.37;;;13.70;82.10;;;;;;5074620;28;20187;-90
2021/10/28 10:11:33;;;;;;;11.70;10.10;;;13.80;82.00;;;;;;5074406;28;20171;-90
2021/10/28 10:13:59;;;;;;;18.13;9.57;;;13.90;82.20;;;;;;5056461;28;20179;-90
2021/10/28 10:16:24;;;;;;;11.97;8.93;;;14.00;80.90;;;;;;5056231;28;20203;-90
2021/10/28 10:18:51;;;;;;;10.90;8.50;;;14.00;81.20;;;;;;5056310;28;20685;-90
2021/10/28 10:21:29;;;;;;;12.87;8.90;;;14.00;81.30;;;;;;5074099;28;20176;-90
2021/10/28 12:45:02;;;;;;;5.18;4.57;;;17.30;72.00;;;;;;5076678;28;20214;-90
2021/10/28 13:28:13;;;;;;;8.00;4.47;;;17.30;71.80;;;;;;5075735;28;20234;-90
2021/10/28 13:49:10;;;;;;;4.47;2.60;;;17.40;70.90;;;;;;5075055;28;20206;-90
2021/10/28 13:54:25;;;;;;;3.95;2.70;;;17.30;71.30;;;;;;5075006;28;20166;-90
2021/10/28 14:31:42;;;;;;;4.82;1.58;;;17.40;69.40;;;;;;5074487;28;20162;-87
2021/10/28 14:58:36;;;;;;;3.88;1.80;;;17.20;69.70;;;;;;5073688;28;20245;-88
2021/10/28 15:29:01;;;;;;;3.42;2.40;;;16.10;73.10;;;;;;5073083;28;20202;-85
2021/10/28 16:22:45;;;;;;;6.75;3.60;;;14.80;76.20;;;;;;5076687;28;20268;-85
2021/10/28 16:25:11;;;;;;;8.45;3.10;;;14.60;76.40;;;;;;5076561;28;20167;-85
2021/10/28 16:27:37;;;;;;;5.75;3.03;;;14.60;76.40;;;;;;5076717;28;20241;-84
2021/10/28 16:30:04;;;;;;;8.02;2.85;;;14.70;76.20;;;;;;5059107;28;20709;-85
2021/10/28 16:32:31;;;;;;;12.68;2.95;;;14.60;76.20;;;;;;5058110;28;20199;-85
2021/10/28 16:34:57;;;;;;;4.82;2.90;;;14.50;76.60;;;;;;5076346;28;20176;-84
2021/10/28 16:37:25;;;;;;;4.78;2.78;;;14.50;76.90;;;;;;5058231;28;20205;-85
2021/10/28 16:39:52;;;;;;;4.88;3.25;;;14.40;77.10;;;;;;5076206;28;20174;-85
2021/10/28 16:42:18;;;;;;;8.13;4.78;;;14.30;77.00;;;;;;5076006;28;20278;-85
2021/10/28 16:44:45;;;;;;;8.15;4.38;;;14.20;77.30;;;;;;5058333;28;20270;-85
2021/10/28 16:47:13;;;;;;;13.60;10.82;;;14.10;77.80;;;;;;5076063;28;20175;-85
2021/10/28 16:49:38;;;;;;;13.88;10.18;;;14.00;78.20;;;;;;5076202;28;20270;-85
2021/10/28 16:52:05;;;;;;;12.25;9.15;;;13.90;77.90;;;;;;5075864;28;20235;-85
2021/10/28 16:54:32;;;;;;;8.10;5.65;;;13.90;78.00;;;;;;5075856;28;20203;-85
2021/10/28 16:56:59;;;;;;;8.02;4.28;;;13.90;78.00;;;;;;5075757;28;20235;-85
2021/10/28 16:59:25;;;;;;;7.40;5.13;;;13.80;78.20;;;;;;5075810;28;20183;-85
2021/10/28 17:01:52;;;;;;;7.22;4.65;;;13.70;78.20;;;;;;5057581;28;20215;-85
2021/10/28 17:04:19;;;;;;;11.55;8.18;;;13.70;78.50;;;;;;5076095;28;20654;-85
2021/10/28 17:06:44;;;;;;;11.68;9.35;;;13.60;78.50;;;;;;5057844;28;20175;-85
2021/10/28 17:09:10;;;;;;;7.35;5.07;;;13.60;78.60;;;;;;5057774;28;20532;-85
2021/10/28 17:11:37;;;;;;;6.25;2.72;;;13.60;78.50;;;;;;5075528;28;20187;-85
2021/10/28 17:14:05;;;;;;;23.13;16.93;;;13.50;78.80;;;;;;5057538;28;20171;-85
2021/10/28 17:16:31;;;;;;;4.97;4.23;;;13.40;79.00;;;;;;5075427;28;20168;-85
2021/10/28 17:18:58;;;;;;;3.63;3.03;;;13.40;79.00;;;;;;5056647;28;20182;-85
2021/10/28 17:21:24;;;;;;;3.93;3.03;;;13.40;78.80;;;;;;5057277;28;20192;-85
2021/10/28 17:23:59;;;;;;;3.37;2.70;;;13.40;78.60;;;;;;5057403;28;20225;-85
2021/10/28 17:26:24;;;;;;;3.87;2.90;;;13.30;78.80;;;;;;5075581;28;20264;-85
2021/10/28 17:28:50;;;;;;;3.37;2.30;;;13.20;79.00;;;;;;5057114;28;20552;-85
2021/10/28 17:31:16;;;;;;;8.13;5.67;;;13.20;79.20;;;;;;5075065;28;20282;-85
2021/10/28 17:33:41;;;;;;;5.63;4.13;;;13.00;79.50;;;;;;5057229;28;20179;-85
2021/10/28 17:36:07;;;;;;;7.43;3.10;;;13.00;79.30;;;;;;5075097;28;20179;-85
2021/10/28 17:38:33;;;;;;;6.80;3.37;;;13.10;79.20;;;;;;5056796;28;20203;-85
2021/10/28 17:41:01;;;;;;;10.33;3.53;;;13.00;79.10;;;;;;5057036;28;20551;-85
2021/10/28 17:43:29;;;;;;;4.70;2.83;;;13.00;79.10;;;;;;5057083;28;20631;-85
2021/10/28 17:45:57;;;;;;;7.60;5.97;;;13.00;79.40;;;;;;5074885;28;20171;-85
2021/10/28 17:48:23;;;;;;;7.37;3.57;;;12.80;79.40;;;;;;5056879;28;20179;-85
2021/10/28 17:50:49;;;;;;;4.50;3.50;;;12.90;79.50;;;;;;5074693;28;20182;-85
2021/10/28 17:53:15;;;;;;;7.60;3.20;;;12.80;79.50;;;;;;5056858;28;20691;-85
2021/10/28 17:55:40;;;;;;;6.53;5.00;;;12.80;79.60;;;;;;5056714;28;20232;-85
2021/10/28 17:58:06;;;;;;;12.50;7.10;;;12.80;79.70;;;;;;5056622;28;20199;-85
2021/10/28 18:00:33;;;;;;;11.53;7.00;;;12.80;79.50;;;;;;5074388;28;20175;-85
2021/10/28 18:03:00;;;;;;;9.23;6.87;;;12.70;79.60;;;;;;5074431;28;20203;-85
2021/10/28 18:05:26;;;;;;;19.33;13.40;;;12.70;79.30;;;;;;5056662;28;20565;-85
2021/10/28 18:07:51;;;;;;;16.97;10.00;;;12.60;79.40;;;;;;5074769;28;20175;-85
2021/10/28 18:10:18;;;;;;;16.57;11.40;;;12.50;79.80;;;;;;5074565;28;20299;-85
2021/10/28 18:12:44;;;;;;;8.70;5.53;;;12.40;79.80;;;;;;5056512;28;20195;-84
2021/10/28 18:15:10;;;;;;;7.40;5.20;;;12.50;79.90;;;;;;5056364;28;20595;-85
2021/10/28 18:17:36;;;;;;;7.10;3.50;;;12.40;79.70;;;;;;5074375;28;20242;-85
2021/10/28 18:20:06;;;;;;;6.57;3.77;;;12.50;79.60;;;;;;5074466;28;20193;-85
2021/10/28 18:22:37;;;;;;;5.50;3.70;;;12.40;79.60;;;;;;5074236;28;20605;-85
2021/10/28 18:25:07;;;;;;;4.20;3.40;;;12.30;79.80;;;;;;5056091;28;20155;-85
2021/10/28 18:27:33;;;;;;;10.27;3.47;;;12.30;79.60;;;;;;5074317;28;20174;-85
2021/10/28 18:30:00;;;;;;;5.90;3.47;;;12.30;79.70;;;;;;5056096;28;20175;-85
2021/10/28 18:32:27;;;;;;;5.07;3.87;;;12.30;79.80;;;;;;5073959;28;20198;-84
2021/10/28 18:34:53;;;;;;;3.50;3.20;;;12.30;79.60;;;;;;5073845;28;20178;-85
2021/10/28 18:37:21;;;;;;;6.73;3.87;;;12.30;79.70;;;;;;5055916;28;20199;-85
2021/10/28 18:39:46;;;;;;;7.37;3.83;;;12.20;80.00;;;;;;5056295;28;20541;-84
2021/10/28 18:42:12;;;;;;;11.77;4.63;;;12.10;80.40;;;;;;5073979;28;20183;-84
2021/10/28 18:44:38;;;;;;;10.00;7.13;;;12.10;80.40;;;;;;5074445;28;20667;-85
2021/10/28 18:47:04;;;;;;;8.23;6.10;;;12.00;80.40;;;;;;5056082;28;20182;-85
2021/10/28 18:49:30;;;;;;;8.40;5.87;;;12.00;80.50;;;;;;5056016;28;20678;-85
2021/10/28 18:51:56;;;;;;;6.33;4.57;;;12.00;80.70;;;;;;5073779;28;20187;-85
2021/10/28 18:54:22;;;;;;;7.50;4.53;;;11.90;80.80;;;;;;5055708;28;20194;-85
2021/10/28 18:56:48;;;;;;;5.67;3.83;;;11.90;80.80;;;;;;5073879;28;20191;-85
2021/10/28 18:59:18;;;;;;;4.73;3.20;;;11.90;81.00;;;;;;5073919;28;20193;-85
2021/10/28 19:01:48;;;;;;;9.37;3.77;;;11.90;81.00;;;;;;5073266;28;20248;-85
2021/10/28 19:04:14;;;;;;;7.33;3.93;;;11.80;81.30;;;;;;5073742;28;20221;-85
2021/10/28 19:06:40;;;;;;;5.83;3.67;;;11.80;81.30;;;;;;5055559;28;20172;-85
2021/10/28 19:09:06;;;;;;;9.57;3.90;;;11.70;81.40;;;;;;5055540;28;20181;-85
2021/10/28 19:11:32;;;;;;;8.07;3.90;;;11.70;81.50;;;;;;5073932;28;20270;-85
2021/10/28 19:13:58;;;;;;;10.57;3.63;;;11.70;81.70;;;;;;5056819;28;20190;-85
2021/10/28 19:16:24;;;;;;;5.10;3.67;;;11.70;82.00;;;;;;5055408;28;20179;-85
2021/10/28 19:18:50;;;;;;;4.93;4.07;;;11.60;82.00;;;;;;5055446;28;20186;-85
2021/10/28 19:21:15;;;;;;;7.57;4.10;;;11.60;82.40;;;;;;5073303;28;20264;-85
2021/10/28 19:23:41;;;;;;;8.07;4.13;;;11.50;82.70;;;;;;5073372;28;20171;-85
2021/10/28 19:26:08;;;;;;;9.43;3.93;;;11.50;83.00;;;;;;5073355;28;20187;-85
2021/10/28 19:28:35;;;;;;;9.13;4.10;;;11.50;82.90;;;;;;5073752;28;20175;-85
2021/10/28 19:36:02;;;;;;;5.63;4.20;;;11.50;83.10;;;;;;5073469;28;20163;-85
2021/10/28 19:41:31;;;;;;;5.40;4.23;;;11.40;83.20;;;;;;5074808;28;20162;-85
2021/10/28 19:46:48;;;;;;;9.33;4.27;;;11.30;83.30;;;;;;5053846;28;20647;-85
2021/10/28 19:49:15;;;;;;;5.70;4.23;;;11.30;83.50;;;;;;5077282;28;20186;-85
2021/10/28 19:51:43;;;;;;;9.60;4.47;;;11.30;83.50;;;;;;5077357;28;20615;-84
2021/10/28 19:54:12;;;;;;;8.47;4.43;;;11.30;83.70;;;;;;5059118;28;20297;-85
2021/10/28 19:56:40;;;;;;;7.07;4.70;;;11.30;83.90;;;;;;5059249;28;20550;-85
2021/10/28 19:59:06;;;;;;;7.60;4.67;;;11.30;84.00;;;;;;5059790;28;20186;-85
2021/10/28 20:01:45;;;;;;;6.53;4.90;;;11.30;84.30;;;;;;5058988;28;20294;-84
2021/10/28 20:04:53;;;;;;;6.97;5.23;;;11.20;84.40;;;;;;5059869;28;20167;-85
2021/10/28 20:07:10;;;;;;;9.30;5.70;;;11.20;84.60;;;;;;5072826;28;20183;-85
2021/10/28 20:15:26;;;;;;;7.63;4.80;;;11.10;84.60;;;;;;5077221;28;20163;-84
2021/10/28 20:20:38;;;;;;;5.77;4.87;;;11.10;85.10;;;;;;5077244;28;20202;-85
2021/10/28 20:23:04;;;;;;;5.87;5.17;;;11.10;85.20;;;;;;5058475;28;20195;-85
2021/10/28 20:25:30;;;;;;;10.77;4.87;;;11.00;85.20;;;;;;5076810;28;20206;-85
2021/10/28 20:28:02;;;;;;;11.30;5.30;;;11.00;85.30;;;;;;5076371;28;20554;-85
2021/10/28 20:30:30;;;;;;;7.20;5.03;;;11.00;85.00;;;;;;5076689;28;20168;-85
2021/10/28 20:32:57;;;;;;;9.40;5.27;;;11.00;85.00;;;;;;5058282;28;20586;-85
2021/10/28 20:37:49;;;;;;;7.13;5.13;;;10.90;85.00;;;;;;5076588;28;20294;-85
2021/10/28 20:40:16;;;;;;;8.13;4.97;;;10.90;84.90;;;;;;5058334;28;20222;-85
2021/10/28 20:42:47;;;;;;;9.83;5.37;;;10.80;85.30;;;;;;5076050;28;20187;-84
2021/10/28 20:45:16;;;;;;;8.73;5.50;;;10.80;85.40;;;;;;5076366;28;20156;-84
2021/10/28 20:47:43;;;;;;;10.80;5.37;;;10.70;85.60;;;;;;5075932;28;20228;-84
2021/10/28 20:50:12;;;;;;;5.80;5.20;;;10.80;85.80;;;;;;5058199;28;20179;-85
2021/10/28 20:52:39;;;;;;;9.40;5.93;;;10.70;85.70;;;;;;5074533;28;20195;-85
2021/10/28 20:55:06;;;;;;;8.53;5.13;;;10.70;85.90;;;;;;5057883;28;20183;-85
2021/10/28 20:57:33;;;;;;;8.60;6.03;;;10.70;85.90;;;;;;5075978;28;20195;-85
2021/10/28 20:59:58;;;;;;;10.37;6.20;;;10.70;86.20;;;;;;5057792;28;20217;-85
2021/10/28 21:02:26;;;;;;;7.93;5.50;;;10.60;86.40;;;;;;5075548;28;20199;-85
2021/10/28 21:04:52;;;;;;;8.30;5.50;;;10.60;86.60;;;;;;5057697;28;20598;-85
2021/10/28 21:07:17;;;;;;;7.07;5.67;;;10.60;86.60;;;;;;5075677;28;20643;-85
2021/10/28 21:09:43;;;;;;;12.93;7.60;;;10.50;86.80;;;;;;5057805;28;20175;-85
2021/10/28 21:12:09;;;;;;;11.63;5.97;;;10.60;86.60;;;;;;5075606;28;20236;-85
2021/10/28 21:14:35;;;;;;;7.67;5.43;;;10.60;86.40;;;;;;5057893;28;20179;-85
2021/10/28 21:17:00;;;;;;;9.37;6.23;;;10.50;86.40;;;;;;5075559;28;20191;-85
2021/10/28 21:19:26;;;;;;;9.13;6.17;;;10.40;86.90;;;;;;5057497;28;20175;-84
2021/10/28 21:21:53;;;;;;;11.90;5.77;;;10.30;87.00;;;;;;5075207;28;20218;-84
2021/10/28 21:24:19;;;;;;;8.13;6.30;;;10.30;87.10;;;;;;5057291;28;20636;-85
2021/10/28 21:26:45;;;;;;;9.10;6.43;;;10.20;87.40;;;;;;5075233;28;20168;-85
2021/10/28 21:29:11;;;;;;;12.87;6.07;;;10.10;87.50;;;;;;5057317;28;20186;-84
2021/10/28 21:31:37;;;;;;;8.43;5.83;;;10.00;87.40;;;;;;5075278;28;20590;-85
2021/10/28 21:34:03;;;;;;;11.30;6.67;;;10.00;87.30;;;;;;5057048;28;20666;-85
2021/10/28 21:36:29;;;;;;;6.53;5.83;;;10.00;87.40;;;;;;5075006;28;20542;-85
2021/10/28 21:38:55;;;;;;;12.07;5.97;;;10.10;87.20;;;;;;5075083;28;20175;-84
2021/10/28 21:41:21;;;;;;;10.97;6.07;;;10.10;87.30;;;;;;5056570;28;20207;-85
2021/10/28 21:43:49;;;;;;;10.30;6.27;;;10.00;87.30;;;;;;5074904;28;20179;-85
2021/10/28 21:46:17;;;;;;;8.53;6.00;;;10.00;87.30;;;;;;5056920;28;20188;-85
2021/10/28 21:48:43;;;;;;;7.47;6.30;;;9.90;87.20;;;;;;5075030;28;20178;-85
2021/10/28 21:51:09;;;;;;;7.60;5.60;;;9.90;87.30;;;;;;5056698;28;20176;-85
2021/10/28 21:53:38;;;;;;;7.33;5.77;;;10.00;87.10;;;;;;5074574;28;20172;-85
2021/10/28 22:04:18;;;;;;;11.13;6.17;;;9.80;87.50;;;;;;5079416;22;20239;-85
2021/10/28 22:25:43;;;;;;;9.93;7.20;;;9.80;87.60;;;;;;5054735;28;20164;-85
2021/10/28 22:28:09;;;;;;;7.50;6.73;;;9.80;87.60;;;;;;5036748;28;20746;-85